sensor_id;sensor_type;location;lat;lon;timestamp;P1;durP1;ratioP1;P2;durP2;ratioP2
10469;SDS011;5282;47.052;15.458;2023-08-12T00:01:07;2.57;;;2.47;;
10469;SDS011;5282;47.052;15.458;2023-08-12T00:03:35;3.27;;;3.07;;
10469;SDS011;5282;47.052;15.458;2023-08-12T00:06:04;3.03;;;2.93;;
10469;SDS011;5282;47.052;15.458;2023-08-12T00:08:31;3.00;;;2.90;;
10469;SDS011;5282;47.052;15.458;2023-08-12T00:10:58;3.23;;;3.13;;
10469;SDS011;5282;47.052;15.458;2023-08-12T00:13:24;2.83;;;2.73;;
10469;SDS011;5282;47.052;15.458;2023-08-12T00:15:51;2.53;;;2.43;;
10469;SDS011;5282;47.052;15.458;2023-08-12T00:18:20;3.00;;;2.80;;
10469;SDS011;5282;47.052;15.458;2023-08-12T00:20:46;2.90;;;2.80;;
10469;SDS011;5282;47.052;15.458;2023-08-12T00:23:13;2.90;;;2.80;;
10469;SDS011;5282;47.052;15.458;2023-08-12T00:25:40;2.80;;;2.70;;
10469;SDS011;5282;47.052;15.458;2023-08-12T00:28:07;2.63;;;2.53;;
10469;SDS011;5282;47.052;15.458;2023-08-12T00:30:35;2.67;;;2.57;;
10469;SDS011;5282;47.052;15.458;2023-08-12T00:33:02;2.80;;;2.70;;
10469;SDS011;5282;47.052;15.458;2023-08-12T00:35:30;3.07;;;2.97;;
10469;SDS011;5282;47.052;15.458;2023-08-12T00:37:57;2.97;;;2.87;;
10469;SDS011;5282;47.052;15.458;2023-08-12T00:40:25;2.60;;;2.50;;
10469;SDS011;5282;47.052;15.458;2023-08-12T00:42:52;2.70;;;2.53;;
10469;SDS011;5282;47.052;15.458;2023-08-12T00:45:19;2.80;;;2.70;;
10469;SDS011;5282;47.052;15.458;2023-08-12T00:47:46;2.97;;;2.87;;
10469;SDS011;5282;47.052;15.458;2023-08-12T00:50:13;3.17;;;3.07;;
10469;SDS011;5282;47.052;15.458;2023-08-12T00:52:42;3.10;;;3.00;;
10469;SDS011;5282;47.052;15.458;2023-08-12T00:55:09;2.90;;;2.80;;
10469;SDS011;5282;47.052;15.458;2023-08-12T00:57:38;3.10;;;3.00;;
10469;SDS011;5282;47.052;15.458;2023-08-12T01:00:05;2.97;;;2.77;;
10469;SDS011;5282;47.052;15.458;2023-08-12T01:02:34;3.23;;;3.13;;
10469;SDS011;5282;47.052;15.458;2023-08-12T01:05:00;3.13;;;3.03;;
10469;SDS011;5282;47.052;15.458;2023-08-12T01:07:28;2.90;;;2.80;;
10469;SDS011;5282;47.052;15.458;2023-08-12T01:09:56;3.20;;;3.10;;
10469;SDS011;5282;47.052;15.458;2023-08-12T01:12:24;3.20;;;3.10;;
10469;SDS011;5282;47.052;15.458;2023-08-12T01:14:56;2.93;;;2.83;;
10469;SDS011;5282;47.052;15.458;2023-08-12T01:17:28;2.80;;;2.70;;
10469;SDS011;5282;47.052;15.458;2023-08-12T01:19:56;3.20;;;3.00;;
10469;SDS011;5282;47.052;15.458;2023-08-12T01:22:23;3.07;;;2.90;;
10469;SDS011;5282;47.052;15.458;2023-08-12T01:24:55;3.20;;;3.10;;
10469;SDS011;5282;47.052;15.458;2023-08-12T01:27:22;2.80;;;2.60;;
10469;SDS011;5282;47.052;15.458;2023-08-12T01:29:49;3.30;;;3.20;;
10469;SDS011;5282;47.052;15.458;2023-08-12T01:32:19;3.20;;;3.00;;
10469;SDS011;5282;47.052;15.458;2023-08-12T01:34:53;3.23;;;3.03;;
10469;SDS011;5282;47.052;15.458;2023-08-12T01:37:26;3.00;;;2.90;;
10469;SDS011;5282;47.052;15.458;2023-08-12T01:39:56;3.00;;;2.90;;
10469;SDS011;5282;47.052;15.458;2023-08-12T01:42:28;2.90;;;2.80;;
10469;SDS011;5282;47.052;15.458;2023-08-12T01:44:55;3.40;;;2.93;;
10469;SDS011;5282;47.052;15.458;2023-08-12T01:47:23;2.70;;;2.60;;
10469;SDS011;5282;47.052;15.458;2023-08-12T01:49:50;2.70;;;2.60;;
10469;SDS011;5282;47.052;15.458;2023-08-12T01:52:17;2.50;;;2.40;;
10469;SDS011;5282;47.052;15.458;2023-08-12T01:54:44;3.13;;;2.60;;
10469;SDS011;5282;47.052;15.458;2023-08-12T01:57:13;2.87;;;2.77;;
10469;SDS011;5282;47.052;15.458;2023-08-12T01:59:40;2.67;;;2.57;;
10469;SDS011;5282;47.052;15.458;2023-08-12T02:02:09;2.70;;;2.60;;
10469;SDS011;5282;47.052;15.458;2023-08-12T02:04:36;2.70;;;2.60;;
10469;SDS011;5282;47.052;15.458;2023-08-12T02:07:04;3.00;;;2.80;;
10469;SDS011;5282;47.052;15.458;2023-08-12T02:09:31;3.03;;;2.90;;
10469;SDS011;5282;47.052;15.458;2023-08-12T02:11:58;2.80;;;2.70;;
10469;SDS011;5282;47.052;15.458;2023-08-12T02:14:27;3.37;;;3.10;;
10469;SDS011;5282;47.052;15.458;2023-08-12T02:16:54;3.20;;;3.00;;
10469;SDS011;5282;47.052;15.458;2023-08-12T02:19:22;2.87;;;2.77;;
10469;SDS011;5282;47.052;15.458;2023-08-12T02:21:52;2.93;;;2.83;;
10469;SDS011;5282;47.052;15.458;2023-08-12T02:24:19;3.10;;;3.00;;
10469;SDS011;5282;47.052;15.458;2023-08-12T02:26:46;3.90;;;3.10;;
10469;SDS011;5282;47.052;15.458;2023-08-12T02:29:13;2.93;;;2.83;;
10469;SDS011;5282;47.052;15.458;2023-08-12T02:31:42;3.43;;;3.13;;
10469;SDS011;5282;47.052;15.458;2023-08-12T02:34:08;2.70;;;2.60;;
10469;SDS011;5282;47.052;15.458;2023-08-12T02:36:38;2.90;;;2.80;;
10469;SDS011;5282;47.052;15.458;2023-08-12T02:39:05;2.87;;;2.77;;
10469;SDS011;5282;47.052;15.458;2023-08-12T02:41:32;3.57;;;3.33;;
10469;SDS011;5282;47.052;15.458;2023-08-12T02:44:02;3.10;;;3.00;;
10469;SDS011;5282;47.052;15.458;2023-08-12T02:46:29;3.10;;;3.00;;
10469;SDS011;5282;47.052;15.458;2023-08-12T02:48:57;3.40;;;3.30;;
10469;SDS011;5282;47.052;15.458;2023-08-12T02:51:24;3.00;;;2.80;;
10469;SDS011;5282;47.052;15.458;2023-08-12T02:53:51;2.93;;;2.83;;
10469;SDS011;5282;47.052;15.458;2023-08-12T02:56:17;2.80;;;2.70;;
10469;SDS011;5282;47.052;15.458;2023-08-12T02:58:45;2.97;;;2.77;;
10469;SDS011;5282;47.052;15.458;2023-08-12T03:01:12;3.20;;;3.10;;
10469;SDS011;5282;47.052;15.458;2023-08-12T03:03:39;3.20;;;3.10;;
10469;SDS011;5282;47.052;15.458;2023-08-12T03:06:07;3.07;;;2.97;;
10469;SDS011;5282;47.052;15.458;2023-08-12T03:08:34;3.30;;;3.20;;
10469;SDS011;5282;47.052;15.458;2023-08-12T03:11:01;3.30;;;3.10;;
10469;SDS011;5282;47.052;15.458;2023-08-12T03:13:29;3.10;;;3.00;;
10469;SDS011;5282;47.052;15.458;2023-08-12T03:15:56;3.00;;;2.90;;
10469;SDS011;5282;47.052;15.458;2023-08-12T03:18:24;3.20;;;3.00;;
10469;SDS011;5282;47.052;15.458;2023-08-12T03:20:51;3.30;;;3.10;;
10469;SDS011;5282;47.052;15.458;2023-08-12T03:23:19;3.20;;;3.10;;
10469;SDS011;5282;47.052;15.458;2023-08-12T03:25:46;3.00;;;2.90;;
10469;SDS011;5282;47.052;15.458;2023-08-12T03:28:13;2.90;;;2.80;;
10469;SDS011;5282;47.052;15.458;2023-08-12T03:30:40;3.10;;;3.00;;
10469;SDS011;5282;47.052;15.458;2023-08-12T03:33:07;3.07;;;2.97;;
10469;SDS011;5282;47.052;15.458;2023-08-12T03:35:34;2.93;;;2.83;;
10469;SDS011;5282;47.052;15.458;2023-08-12T03:38:01;3.10;;;2.90;;
10469;SDS011;5282;47.052;15.458;2023-08-12T03:40:30;3.33;;;3.13;;
10469;SDS011;5282;47.052;15.458;2023-08-12T03:42:57;3.40;;;3.30;;
10469;SDS011;5282;47.052;15.458;2023-08-12T03:45:24;3.30;;;3.20;;
10469;SDS011;5282;47.052;15.458;2023-08-12T03:47:51;3.17;;;3.07;;
10469;SDS011;5282;47.052;15.458;2023-08-12T03:50:18;2.93;;;2.83;;
10469;SDS011;5282;47.052;15.458;2023-08-12T03:52:45;3.30;;;2.97;;
10469;SDS011;5282;47.052;15.458;2023-08-12T03:55:12;2.87;;;2.77;;
10469;SDS011;5282;47.052;15.458;2023-08-12T03:57:40;3.50;;;3.30;;
10469;SDS011;5282;47.052;15.458;2023-08-12T04:00:07;3.40;;;3.30;;
10469;SDS011;5282;47.052;15.458;2023-08-12T04:02:34;3.07;;;2.87;;
10469;SDS011;5282;47.052;15.458;2023-08-12T04:05:04;2.90;;;2.80;;
10469;SDS011;5282;47.052;15.458;2023-08-12T04:07:31;3.37;;;3.27;;
10469;SDS011;5282;47.052;15.458;2023-08-12T04:09:58;3.30;;;3.10;;
10469;SDS011;5282;47.052;15.458;2023-08-12T04:12:25;3.30;;;3.20;;
10469;SDS011;5282;47.052;15.458;2023-08-12T04:14:53;3.43;;;3.23;;
10469;SDS011;5282;47.052;15.458;2023-08-12T04:17:20;2.97;;;2.87;;
10469;SDS011;5282;47.052;15.458;2023-08-12T04:19:47;3.10;;;3.00;;
10469;SDS011;5282;47.052;15.458;2023-08-12T04:22:17;3.27;;;3.17;;
10469;SDS011;5282;47.052;15.458;2023-08-12T04:24:44;3.30;;;3.20;;
10469;SDS011;5282;47.052;15.458;2023-08-12T04:27:11;3.33;;;3.10;;
10469;SDS011;5282;47.052;15.458;2023-08-12T04:29:37;3.30;;;3.20;;
10469;SDS011;5282;47.052;15.458;2023-08-12T04:32:06;3.70;;;3.50;;
10469;SDS011;5282;47.052;15.458;2023-08-12T04:34:33;3.33;;;3.20;;
10469;SDS011;5282;47.052;15.458;2023-08-12T04:37:00;3.77;;;3.67;;
10469;SDS011;5282;47.052;15.458;2023-08-12T04:39:27;3.20;;;3.10;;
10469;SDS011;5282;47.052;15.458;2023-08-12T04:41:54;3.40;;;3.30;;
10469;SDS011;5282;47.052;15.458;2023-08-12T04:44:21;3.90;;;3.60;;
10469;SDS011;5282;47.052;15.458;2023-08-12T04:46:48;3.03;;;2.93;;
10469;SDS011;5282;47.052;15.458;2023-08-12T04:49:17;3.23;;;3.13;;
10469;SDS011;5282;47.052;15.458;2023-08-12T04:51:43;3.33;;;3.23;;
10469;SDS011;5282;47.052;15.458;2023-08-12T04:54:10;3.23;;;3.13;;
10469;SDS011;5282;47.052;15.458;2023-08-12T04:56:37;3.27;;;3.07;;
10469;SDS011;5282;47.052;15.458;2023-08-12T04:59:04;3.50;;;3.30;;
10469;SDS011;5282;47.052;15.458;2023-08-12T05:01:33;3.33;;;3.23;;
10469;SDS011;5282;47.052;15.458;2023-08-12T05:04:00;3.50;;;3.40;;
10469;SDS011;5282;47.052;15.458;2023-08-12T05:06:28;3.70;;;3.50;;
10469;SDS011;5282;47.052;15.458;2023-08-12T05:08:55;3.30;;;3.10;;
10469;SDS011;5282;47.052;15.458;2023-08-12T05:11:22;3.20;;;3.10;;
10469;SDS011;5282;47.052;15.458;2023-08-12T05:13:49;3.53;;;3.43;;
10469;SDS011;5282;47.052;15.458;2023-08-12T05:16:16;3.20;;;3.00;;
10469;SDS011;5282;47.052;15.458;2023-08-12T05:18:43;3.80;;;3.60;;
10469;SDS011;5282;47.052;15.458;2023-08-12T05:21:10;3.60;;;3.40;;
10469;SDS011;5282;47.052;15.458;2023-08-12T05:23:38;3.73;;;3.43;;
10469;SDS011;5282;47.052;15.458;2023-08-12T05:26:05;3.70;;;3.60;;
10469;SDS011;5282;47.052;15.458;2023-08-12T05:28:32;3.57;;;3.43;;
10469;SDS011;5282;47.052;15.458;2023-08-12T05:30:59;3.70;;;3.40;;
10469;SDS011;5282;47.052;15.458;2023-08-12T05:33:26;3.30;;;3.20;;
10469;SDS011;5282;47.052;15.458;2023-08-12T05:35:53;3.30;;;3.20;;
10469;SDS011;5282;47.052;15.458;2023-08-12T05:38:20;4.93;;;3.87;;
10469;SDS011;5282;47.052;15.458;2023-08-12T05:40:48;4.00;;;3.80;;
10469;SDS011;5282;47.052;15.458;2023-08-12T05:43:15;3.37;;;3.27;;
10469;SDS011;5282;47.052;15.458;2023-08-12T05:45:42;3.00;;;2.90;;
10469;SDS011;5282;47.052;15.458;2023-08-12T05:48:09;3.87;;;3.60;;
10469;SDS011;5282;47.052;15.458;2023-08-12T05:50:36;3.70;;;3.40;;
10469;SDS011;5282;47.052;15.458;2023-08-12T05:53:03;3.60;;;3.40;;
10469;SDS011;5282;47.052;15.458;2023-08-12T05:55:30;3.70;;;3.40;;
10469;SDS011;5282;47.052;15.458;2023-08-12T05:58:03;3.77;;;3.57;;
10469;SDS011;5282;47.052;15.458;2023-08-12T06:00:30;3.70;;;3.60;;
10469;SDS011;5282;47.052;15.458;2023-08-12T06:02:57;3.53;;;3.43;;
10469;SDS011;5282;47.052;15.458;2023-08-12T06:05:24;3.77;;;3.60;;
10469;SDS011;5282;47.052;15.458;2023-08-12T06:07:51;3.50;;;3.40;;
10469;SDS011;5282;47.052;15.458;2023-08-12T06:10:17;4.10;;;3.90;;
10469;SDS011;5282;47.052;15.458;2023-08-12T06:12:44;3.63;;;3.53;;
10469;SDS011;5282;47.052;15.458;2023-08-12T06:15:12;3.57;;;3.37;;
10469;SDS011;5282;47.052;15.458;2023-08-12T06:17:39;3.73;;;3.60;;
10469;SDS011;5282;47.052;15.458;2023-08-12T06:20:07;3.37;;;3.17;;
10469;SDS011;5282;47.052;15.458;2023-08-12T06:22:34;3.50;;;3.40;;
10469;SDS011;5282;47.052;15.458;2023-08-12T06:25:01;3.77;;;3.60;;
10469;SDS011;5282;47.052;15.458;2023-08-12T06:27:28;3.73;;;3.57;;
10469;SDS011;5282;47.052;15.458;2023-08-12T06:29:55;3.50;;;3.30;;
10469;SDS011;5282;47.052;15.458;2023-08-12T06:32:24;3.73;;;3.47;;
10469;SDS011;5282;47.052;15.458;2023-08-12T06:34:50;3.70;;;3.50;;
10469;SDS011;5282;47.052;15.458;2023-08-12T06:37:17;4.00;;;3.80;;
10469;SDS011;5282;47.052;15.458;2023-08-12T06:39:44;4.20;;;4.00;;
10469;SDS011;5282;47.052;15.458;2023-08-12T06:42:11;4.40;;;4.10;;
10469;SDS011;5282;47.052;15.458;2023-08-12T06:44:38;4.03;;;3.83;;
10469;SDS011;5282;47.052;15.458;2023-08-12T06:47:05;3.63;;;3.43;;
10469;SDS011;5282;47.052;15.458;2023-08-12T06:49:33;3.90;;;3.70;;
10469;SDS011;5282;47.052;15.458;2023-08-12T06:52:00;4.00;;;3.80;;
10469;SDS011;5282;47.052;15.458;2023-08-12T06:54:27;3.70;;;3.50;;
10469;SDS011;5282;47.052;15.458;2023-08-12T06:56:54;3.80;;;3.60;;
10469;SDS011;5282;47.052;15.458;2023-08-12T06:59:21;3.73;;;3.53;;
10469;SDS011;5282;47.052;15.458;2023-08-12T07:01:48;3.70;;;3.50;;
10469;SDS011;5282;47.052;15.458;2023-08-12T07:04:15;3.30;;;3.20;;
10469;SDS011;5282;47.052;15.458;2023-08-12T07:06:44;3.53;;;3.33;;
10469;SDS011;5282;47.052;15.458;2023-08-12T07:09:11;3.30;;;3.20;;
10469;SDS011;5282;47.052;15.458;2023-08-12T07:11:38;3.40;;;3.20;;
10469;SDS011;5282;47.052;15.458;2023-08-12T07:14:07;3.27;;;3.17;;
10469;SDS011;5282;47.052;15.458;2023-08-12T07:16:34;3.30;;;3.20;;
10469;SDS011;5282;47.052;15.458;2023-08-12T07:19:01;3.87;;;3.67;;
10469;SDS011;5282;47.052;15.458;2023-08-12T07:21:28;3.70;;;3.40;;
10469;SDS011;5282;47.052;15.458;2023-08-12T07:23:56;4.03;;;3.73;;
10469;SDS011;5282;47.052;15.458;2023-08-12T07:26:23;3.40;;;3.30;;
10469;SDS011;5282;47.052;15.458;2023-08-12T07:28:50;3.83;;;3.67;;
10469;SDS011;5282;47.052;15.458;2023-08-12T07:31:17;3.50;;;3.40;;
10469;SDS011;5282;47.052;15.458;2023-08-12T07:33:44;3.47;;;3.27;;
10469;SDS011;5282;47.052;15.458;2023-08-12T07:36:11;3.23;;;3.10;;
10469;SDS011;5282;47.052;15.458;2023-08-12T07:38:38;4.17;;;3.87;;
10469;SDS011;5282;47.052;15.458;2023-08-12T07:41:09;4.13;;;3.80;;
10469;SDS011;5282;47.052;15.458;2023-08-12T07:43:36;3.73;;;3.47;;
10469;SDS011;5282;47.052;15.458;2023-08-12T07:46:03;3.53;;;3.43;;
10469;SDS011;5282;47.052;15.458;2023-08-12T07:48:30;3.50;;;3.33;;
10469;SDS011;5282;47.052;15.458;2023-08-12T07:50:57;3.43;;;3.23;;
10469;SDS011;5282;47.052;15.458;2023-08-12T07:53:24;3.50;;;3.40;;
10469;SDS011;5282;47.052;15.458;2023-08-12T07:55:52;3.47;;;3.37;;
10469;SDS011;5282;47.052;15.458;2023-08-12T07:58:20;3.63;;;3.33;;
10469;SDS011;5282;47.052;15.458;2023-08-12T08:00:47;3.20;;;3.03;;
10469;SDS011;5282;47.052;15.458;2023-08-12T08:03:14;3.27;;;3.17;;
10469;SDS011;5282;47.052;15.458;2023-08-12T08:05:40;3.23;;;3.10;;
10469;SDS011;5282;47.052;15.458;2023-08-12T08:08:07;3.13;;;3.03;;
10469;SDS011;5282;47.052;15.458;2023-08-12T08:10:34;3.43;;;3.07;;
10469;SDS011;5282;47.052;15.458;2023-08-12T08:13:01;3.07;;;2.97;;
10469;SDS011;5282;47.052;15.458;2023-08-12T08:15:29;3.67;;;3.40;;
10469;SDS011;5282;47.052;15.458;2023-08-12T08:17:57;3.13;;;3.00;;
10469;SDS011;5282;47.052;15.458;2023-08-12T08:20:24;3.00;;;2.80;;
10469;SDS011;5282;47.052;15.458;2023-08-12T08:22:51;3.30;;;3.20;;
10469;SDS011;5282;47.052;15.458;2023-08-12T08:25:20;3.03;;;2.93;;
10469;SDS011;5282;47.052;15.458;2023-08-12T08:27:48;3.13;;;3.03;;
10469;SDS011;5282;47.052;15.458;2023-08-12T08:30:17;3.40;;;3.23;;
10469;SDS011;5282;47.052;15.458;2023-08-12T08:32:45;3.47;;;3.27;;
10469;SDS011;5282;47.052;15.458;2023-08-12T08:35:12;3.13;;;3.03;;
10469;SDS011;5282;47.052;15.458;2023-08-12T08:37:40;3.50;;;3.30;;
10469;SDS011;5282;47.052;15.458;2023-08-12T08:40:08;3.33;;;3.23;;
10469;SDS011;5282;47.052;15.458;2023-08-12T08:42:35;3.20;;;3.10;;
10469;SDS011;5282;47.052;15.458;2023-08-12T08:45:03;3.30;;;3.20;;
10469;SDS011;5282;47.052;15.458;2023-08-12T08:47:40;3.27;;;3.13;;
10469;SDS011;5282;47.052;15.458;2023-08-12T08:50:09;2.80;;;2.70;;
10469;SDS011;5282;47.052;15.458;2023-08-12T08:52:37;2.70;;;2.60;;
10469;SDS011;5282;47.052;15.458;2023-08-12T08:55:04;2.80;;;2.70;;
10469;SDS011;5282;47.052;15.458;2023-08-12T08:57:32;2.75;;;2.65;;
10469;SDS011;5282;47.052;15.458;2023-08-12T08:59:59;2.88;;;2.78;;
10469;SDS011;5282;47.052;15.458;2023-08-12T09:02:25;2.85;;;2.75;;
10469;SDS011;5282;47.052;15.458;2023-08-12T09:04:53;2.65;;;2.55;;
10469;SDS011;5282;47.052;15.458;2023-08-12T09:07:22;2.70;;;2.60;;
10469;SDS011;5282;47.052;15.458;2023-08-12T09:09:49;2.85;;;2.75;;
10469;SDS011;5282;47.052;15.458;2023-08-12T09:12:19;2.78;;;2.67;;
10469;SDS011;5282;47.052;15.458;2023-08-12T09:14:49;2.63;;;2.53;;
10469;SDS011;5282;47.052;15.458;2023-08-12T09:17:16;3.20;;;3.10;;
10469;SDS011;5282;47.052;15.458;2023-08-12T09:19:43;3.25;;;3.15;;
10469;SDS011;5282;47.052;15.458;2023-08-12T09:22:09;2.88;;;2.78;;
10469;SDS011;5282;47.052;15.458;2023-08-12T09:24:37;3.05;;;2.72;;
10469;SDS011;5282;47.052;15.458;2023-08-12T09:27:04;3.00;;;2.90;;
10469;SDS011;5282;47.052;15.458;2023-08-12T09:29:32;2.95;;;2.85;;
10469;SDS011;5282;47.052;15.458;2023-08-12T09:32:06;3.13;;;3.03;;
10469;SDS011;5282;47.052;15.458;2023-08-12T09:34:35;3.08;;;2.97;;
10469;SDS011;5282;47.052;15.458;2023-08-12T09:37:03;3.08;;;2.97;;
10469;SDS011;5282;47.052;15.458;2023-08-12T09:39:30;3.15;;;2.95;;
10469;SDS011;5282;47.052;15.458;2023-08-12T09:42:00;2.85;;;2.75;;
10469;SDS011;5282;47.052;15.458;2023-08-12T09:44:28;3.42;;;3.13;;
10469;SDS011;5282;47.052;15.458;2023-08-12T09:46:58;2.90;;;2.80;;
10469;SDS011;5282;47.052;15.458;2023-08-12T09:49:24;3.03;;;2.92;;
10469;SDS011;5282;47.052;15.458;2023-08-12T09:51:53;3.13;;;3.03;;
10469;SDS011;5282;47.052;15.458;2023-08-12T09:54:20;3.45;;;3.35;;
10469;SDS011;5282;47.052;15.458;2023-08-12T09:56:51;3.10;;;3.00;;
10469;SDS011;5282;47.052;15.458;2023-08-12T09:59:23;3.63;;;3.50;;
10469;SDS011;5282;47.052;15.458;2023-08-12T10:01:51;3.20;;;3.10;;
10469;SDS011;5282;47.052;15.458;2023-08-12T10:04:21;3.65;;;3.45;;
10469;SDS011;5282;47.052;15.458;2023-08-12T10:06:49;3.30;;;3.20;;
10469;SDS011;5282;47.052;15.458;2023-08-12T10:09:16;3.35;;;3.25;;
10469;SDS011;5282;47.052;15.458;2023-08-12T10:11:45;3.20;;;3.10;;
10469;SDS011;5282;47.052;15.458;2023-08-12T10:14:14;2.95;;;2.85;;
10469;SDS011;5282;47.052;15.458;2023-08-12T10:16:45;3.30;;;3.20;;
10469;SDS011;5282;47.052;15.458;2023-08-12T10:19:13;3.20;;;3.10;;
10469;SDS011;5282;47.052;15.458;2023-08-12T10:21:43;3.47;;;3.13;;
10469;SDS011;5282;47.052;15.458;2023-08-12T10:24:10;3.30;;;3.20;;
10469;SDS011;5282;47.052;15.458;2023-08-12T10:26:38;3.42;;;3.22;;
10469;SDS011;5282;47.052;15.458;2023-08-12T10:29:06;2.75;;;2.55;;
10469;SDS011;5282;47.052;15.458;2023-08-12T10:31:34;2.72;;;2.63;;
10469;SDS011;5282;47.052;15.458;2023-08-12T10:34:03;3.20;;;3.10;;
10469;SDS011;5282;47.052;15.458;2023-08-12T10:36:31;3.00;;;2.90;;
10469;SDS011;5282;47.052;15.458;2023-08-12T10:39:00;3.13;;;3.03;;
10469;SDS011;5282;47.052;15.458;2023-08-12T10:41:27;3.22;;;3.13;;
10469;SDS011;5282;47.052;15.458;2023-08-12T10:43:55;3.20;;;3.10;;
10469;SDS011;5282;47.052;15.458;2023-08-12T10:46:29;3.13;;;2.92;;
10469;SDS011;5282;47.052;15.458;2023-08-12T10:48:58;2.92;;;2.83;;
10469;SDS011;5282;47.052;15.458;2023-08-12T10:51:39;2.90;;;2.80;;
10469;SDS011;5282;47.052;15.458;2023-08-12T10:54:18;2.38;;;2.38;;
10469;SDS011;5282;47.052;15.458;2023-08-12T11:02:20;3.05;;;2.95;;
10469;SDS011;5282;47.052;15.458;2023-08-12T11:04:51;3.17;;;3.08;;
10469;SDS011;5282;47.052;15.458;2023-08-12T11:07:20;2.60;;;2.50;;
10469;SDS011;5282;47.052;15.458;2023-08-12T11:09:51;2.45;;;2.45;;
10469;SDS011;5282;47.052;15.458;2023-08-12T11:12:27;2.53;;;2.50;;
10469;SDS011;5282;47.052;15.458;2023-08-12T11:14:58;2.70;;;2.50;;
10469;SDS011;5282;47.052;15.458;2023-08-12T11:17:32;2.70;;;2.60;;
10469;SDS011;5282;47.052;15.458;2023-08-12T11:20:01;3.10;;;3.00;;
10469;SDS011;5282;47.052;15.458;2023-08-12T11:22:30;2.63;;;2.53;;
10469;SDS011;5282;47.052;15.458;2023-08-12T11:25:00;2.75;;;2.70;;
10469;SDS011;5282;47.052;15.458;2023-08-12T11:27:27;3.05;;;2.70;;
10469;SDS011;5282;47.052;15.458;2023-08-12T11:29:54;2.85;;;2.75;;
10469;SDS011;5282;47.052;15.458;2023-08-12T11:32:21;3.13;;;3.03;;
10469;SDS011;5282;47.052;15.458;2023-08-12T11:34:48;2.67;;;2.67;;
10469;SDS011;5282;47.052;15.458;2023-08-12T11:37:16;3.20;;;3.00;;
10469;SDS011;5282;47.052;15.458;2023-08-12T11:39:43;2.83;;;2.75;;
10469;SDS011;5282;47.052;15.458;2023-08-12T11:42:10;2.90;;;2.80;;
10469;SDS011;5282;47.052;15.458;2023-08-12T11:44:39;2.70;;;2.60;;
10469;SDS011;5282;47.052;15.458;2023-08-12T11:47:06;2.60;;;2.50;;
10469;SDS011;5282;47.052;15.458;2023-08-12T11:49:33;3.10;;;3.00;;
10469;SDS011;5282;47.052;15.458;2023-08-12T11:52:00;3.40;;;3.10;;
10469;SDS011;5282;47.052;15.458;2023-08-12T11:54:29;2.60;;;2.50;;
10469;SDS011;5282;47.052;15.458;2023-08-12T11:56:56;2.90;;;2.80;;
10469;SDS011;5282;47.052;15.458;2023-08-12T11:59:24;3.33;;;3.22;;
10469;SDS011;5282;47.052;15.458;2023-08-12T12:01:51;2.97;;;2.88;;
10469;SDS011;5282;47.052;15.458;2023-08-12T12:04:21;3.03;;;2.92;;
10469;SDS011;5282;47.052;15.458;2023-08-12T12:06:48;2.60;;;2.60;;
10469;SDS011;5282;47.052;15.458;2023-08-12T12:09:17;2.75;;;2.65;;
10469;SDS011;5282;47.052;15.458;2023-08-12T12:11:47;2.95;;;2.90;;
10469;SDS011;5282;47.052;15.458;2023-08-12T12:14:20;2.95;;;2.88;;
10469;SDS011;5282;47.052;15.458;2023-08-12T12:16:48;3.05;;;2.95;;
10469;SDS011;5282;47.052;15.458;2023-08-12T12:19:16;3.22;;;3.13;;
10469;SDS011;5282;47.052;15.458;2023-08-12T12:21:45;3.05;;;2.95;;
10469;SDS011;5282;47.052;15.458;2023-08-12T12:24:15;2.80;;;2.70;;
10469;SDS011;5282;47.052;15.458;2023-08-12T12:26:43;3.03;;;2.92;;
10469;SDS011;5282;47.052;15.458;2023-08-12T12:29:11;2.70;;;2.60;;
10469;SDS011;5282;47.052;15.458;2023-08-12T12:31:39;3.22;;;3.13;;
10469;SDS011;5282;47.052;15.458;2023-08-12T12:34:07;2.50;;;2.40;;
10469;SDS011;5282;47.052;15.458;2023-08-12T12:36:35;2.67;;;2.58;;
10469;SDS011;5282;47.052;15.458;2023-08-12T12:39:03;2.75;;;2.65;;
10469;SDS011;5282;47.052;15.458;2023-08-12T12:41:31;2.40;;;2.40;;
10469;SDS011;5282;47.052;15.458;2023-08-12T12:43:59;2.80;;;2.70;;
10469;SDS011;5282;47.052;15.458;2023-08-12T12:46:27;2.25;;;2.25;;
10469;SDS011;5282;47.052;15.458;2023-08-12T12:48:55;2.55;;;2.45;;
10469;SDS011;5282;47.052;15.458;2023-08-12T12:51:22;2.30;;;2.30;;
10469;SDS011;5282;47.052;15.458;2023-08-12T12:53:49;2.35;;;2.35;;
10469;SDS011;5282;47.052;15.458;2023-08-12T12:56:16;2.40;;;2.40;;
10469;SDS011;5282;47.052;15.458;2023-08-12T12:58:42;2.47;;;2.38;;
10469;SDS011;5282;47.052;15.458;2023-08-12T13:01:09;2.55;;;2.45;;
10469;SDS011;5282;47.052;15.458;2023-08-12T13:03:38;2.70;;;2.60;;
10469;SDS011;5282;47.052;15.458;2023-08-12T13:06:05;2.28;;;2.28;;
10469;SDS011;5282;47.052;15.458;2023-08-12T13:08:32;2.72;;;2.63;;
10469;SDS011;5282;47.052;15.458;2023-08-12T13:11:01;2.80;;;2.70;;
10469;SDS011;5282;47.052;15.458;2023-08-12T13:13:28;2.60;;;2.42;;
10469;SDS011;5282;47.052;15.458;2023-08-12T13:15:56;2.90;;;2.80;;
10469;SDS011;5282;47.052;15.458;2023-08-12T13:18:22;2.72;;;2.63;;
10469;SDS011;5282;47.052;15.458;2023-08-12T13:20:51;2.88;;;2.78;;
10469;SDS011;5282;47.052;15.458;2023-08-12T13:23:18;2.75;;;2.65;;
10469;SDS011;5282;47.052;15.458;2023-08-12T13:25:45;2.85;;;2.75;;
10469;SDS011;5282;47.052;15.458;2023-08-12T13:28:12;2.88;;;2.67;;
10469;SDS011;5282;47.052;15.458;2023-08-12T13:30:38;2.92;;;2.83;;
10469;SDS011;5282;47.052;15.458;2023-08-12T13:33:05;2.97;;;2.88;;
10469;SDS011;5282;47.052;15.458;2023-08-12T13:35:32;2.45;;;2.45;;
10469;SDS011;5282;47.052;15.458;2023-08-12T13:38:01;2.72;;;2.65;;
10469;SDS011;5282;47.052;15.458;2023-08-12T13:40:29;2.67;;;2.60;;
10469;SDS011;5282;47.052;15.458;2023-08-12T13:42:56;2.42;;;2.38;;
10469;SDS011;5282;47.052;15.458;2023-08-12T13:45:25;2.60;;;2.53;;
10469;SDS011;5282;47.052;15.458;2023-08-12T13:47:52;2.40;;;2.40;;
10469;SDS011;5282;47.052;15.458;2023-08-12T13:50:19;2.47;;;2.38;;
10469;SDS011;5282;47.052;15.458;2023-08-12T13:52:46;2.22;;;2.20;;
10469;SDS011;5282;47.052;15.458;2023-08-12T13:55:15;2.30;;;2.30;;
10469;SDS011;5282;47.052;15.458;2023-08-12T13:57:43;2.50;;;2.38;;
10469;SDS011;5282;47.052;15.458;2023-08-12T14:00:10;2.50;;;2.40;;
10469;SDS011;5282;47.052;15.458;2023-08-12T14:02:39;2.38;;;2.33;;
10469;SDS011;5282;47.052;15.458;2023-08-12T14:05:07;2.25;;;2.15;;
10469;SDS011;5282;47.052;15.458;2023-08-12T14:07:35;2.35;;;2.33;;
10469;SDS011;5282;47.052;15.458;2023-08-12T14:10:02;2.35;;;2.25;;
10469;SDS011;5282;47.052;15.458;2023-08-12T14:12:31;2.50;;;2.40;;
10469;SDS011;5282;47.052;15.458;2023-08-12T14:14:58;2.38;;;2.35;;
10469;SDS011;5282;47.052;15.458;2023-08-12T14:17:25;2.47;;;2.45;;
10469;SDS011;5282;47.052;15.458;2023-08-12T14:19:53;2.53;;;2.45;;
10469;SDS011;5282;47.052;15.458;2023-08-12T14:22:20;2.63;;;2.58;;
10469;SDS011;5282;47.052;15.458;2023-08-12T14:24:47;2.40;;;2.40;;
10469;SDS011;5282;47.052;15.458;2023-08-12T14:27:17;2.88;;;2.78;;
10469;SDS011;5282;47.052;15.458;2023-08-12T14:29:45;2.75;;;2.65;;
10469;SDS011;5282;47.052;15.458;2023-08-12T14:32:12;2.20;;;2.10;;
10469;SDS011;5282;47.052;15.458;2023-08-12T14:34:41;2.80;;;2.70;;
10469;SDS011;5282;47.052;15.458;2023-08-12T14:37:10;2.85;;;2.75;;
10469;SDS011;5282;47.052;15.458;2023-08-12T14:39:37;3.30;;;3.20;;
10469;SDS011;5282;47.052;15.458;2023-08-12T14:42:04;2.67;;;2.58;;
10469;SDS011;5282;47.052;15.458;2023-08-12T14:44:33;2.60;;;2.50;;
10469;SDS011;5282;47.052;15.458;2023-08-12T14:47:02;2.70;;;2.60;;
10469;SDS011;5282;47.052;15.458;2023-08-12T14:49:29;2.95;;;2.85;;
10469;SDS011;5282;47.052;15.458;2023-08-12T14:51:56;2.90;;;2.80;;
10469;SDS011;5282;47.052;15.458;2023-08-12T14:54:23;2.60;;;2.50;;
10469;SDS011;5282;47.052;15.458;2023-08-12T14:56:50;2.70;;;2.55;;